createdAt,value
2023-01-01T00:23:43.828Z,11
2023-01-01T00:52:26.651Z,23
2023-01-01T01:21:22.188Z,21
2023-01-01T01:50:19.211Z,10
2023-01-01T02:19:14.206Z,7
2023-01-01T02:48:08.507Z,5
2023-01-01T03:17:07.039Z,5
2023-01-01T03:45:58.329Z,7
2023-01-01T04:14:47.793Z,7
2023-01-01T04:43:42.185Z,7
2023-01-01T05:12:38.012Z,8
2023-01-01T05:41:28.518Z,7
2023-01-01T06:10:21.373Z,6
2023-01-01T06:39:16.317Z,6
2023-01-01T07:07:36.263Z,6
2023-01-01T07:35:58.124Z,7
2023-01-01T08:04:19.724Z,6
2023-01-01T08:32:37.404Z,7
2023-01-01T09:01:11.493Z,6
2023-01-01T09:29:52.525Z,7
2023-01-01T09:58:15.241Z,7
2023-01-01T10:26:27.262Z,7
2023-01-01T10:55:07.332Z,7
2023-01-01T11:23:18.333Z,7
2023-01-01T11:51:48.950Z,5
2023-01-01T12:20:01.570Z,6
2023-01-01T12:48:18.372Z,7
2023-01-01T13:17:10.658Z,5
2023-01-01T13:46:11.401Z,7
2023-01-01T14:14:28.643Z,5
2023-01-01T14:43:16.064Z,5
2023-01-01T15:11:38.980Z,7
2023-01-01T15:39:56.344Z,10
2023-01-01T16:08:08.858Z,10
2023-01-01T16:36:24.180Z,11
2023-01-01T17:04:40.077Z,13
2023-01-01T17:33:05.161Z,10
2023-01-01T18:01:52.081Z,10
2023-01-01T18:30:25.802Z,10
2023-01-01T18:58:44.097Z,10
2023-01-01T19:27:01.102Z,11
2023-01-01T19:55:19.900Z,10
2023-01-01T20:24:14.263Z,10
2023-01-01T20:52:31.368Z,10
2023-01-01T21:20:50.152Z,10
2023-01-01T21:49:38.468Z,9
2023-01-01T22:17:59.007Z,7
2023-01-01T22:46:12.182Z,7
2023-01-01T23:14:38.741Z,6
2023-01-01T23:42:37.762Z,7
